createdAt,value
2017-10-08T00:02:14.335Z,14.10
2017-10-08T00:04:43.934Z,15.20
2017-10-08T00:07:12.945Z,15.75
2017-10-08T00:09:43.678Z,16.80
2017-10-08T00:12:14.177Z,19.27
2017-10-08T00:14:44.673Z,14.60
2017-10-08T00:17:13.684Z,25.10
2017-10-08T00:19:43.394Z,22.60
2017-10-08T00:22:12.455Z,17.73
2017-10-08T00:24:41.435Z,13.25
2017-10-08T00:27:10.952Z,16.20
2017-10-08T00:29:40.046Z,16.05
2017-10-08T00:32:09.349Z,19.53
2017-10-08T00:34:38.614Z,18.53
2017-10-08T00:37:08.766Z,20.80
2017-10-08T00:39:37.872Z,20.12
2017-10-08T00:42:07.146Z,19.30
2017-10-08T00:44:36.545Z,17.20
2017-10-08T00:47:05.621Z,18.15
2017-10-08T00:49:35.491Z,18.35
2017-10-08T00:52:04.301Z,18.23
2017-10-08T00:54:33.251Z,18.75
2017-10-08T00:57:02.186Z,22.67
2017-10-08T00:59:31.174Z,16.30
2017-10-08T01:02:00.487Z,19.62
2017-10-08T01:04:30.186Z,16.65
2017-10-08T01:06:59.046Z,14.48
2017-10-08T01:09:28.034Z,11.68
2017-10-08T01:11:56.918Z,10.60
2017-10-08T01:14:26.246Z,12.52
2017-10-08T01:16:55.098Z,17.27
2017-10-08T01:19:24.032Z,18.95
2017-10-08T01:21:53.210Z,22.27
2017-10-08T01:24:22.581Z,23.48
2017-10-08T01:26:52.017Z,23.35
2017-10-08T01:29:21.139Z,21.67
2017-10-08T01:31:50.995Z,27.70
2017-10-08T01:34:19.984Z,28.77
2017-10-08T01:36:49.008Z,27.33
2017-10-08T01:39:18.430Z,28.77
2017-10-08T01:41:48.222Z,23.95
2017-10-08T01:44:17.658Z,25.12
2017-10-08T01:46:46.907Z,23.92
2017-10-08T01:49:15.707Z,23.12
2017-10-08T01:51:45.443Z,24.67
2017-10-08T01:54:15.126Z,23.10
2017-10-08T01:56:45.836Z,24.48
2017-10-08T01:59:14.890Z,29.10
2017-10-08T02:01:43.861Z,22.23
2017-10-08T02:04:13.877Z,21.70
2017-10-08T02:06:43.789Z,20.05
2017-10-08T02:09:13.956Z,24.33
2017-10-08T02:11:43.035Z,32.70
2017-10-08T02:14:12.352Z,25.08
2017-10-08T02:16:41.392Z,28.60
2017-10-08T02:19:11.141Z,28.60
2017-10-08T02:21:40.121Z,27.05
2017-10-08T02:24:09.140Z,28.08
2017-10-08T02:26:38.246Z,29.12
2017-10-08T02:29:07.301Z,25.33
2017-10-08T02:31:36.318Z,25.70
2017-10-08T02:34:05.294Z,28.87
2017-10-08T02:36:34.228Z,29.17
2017-10-08T02:39:03.885Z,29.05
2017-10-08T02:41:32.741Z,31.87
2017-10-08T02:44:02.396Z,28.73
2017-10-08T02:46:31.231Z,28.67
2017-10-08T02:49:00.109Z,34.95
2017-10-08T02:51:29.620Z,32.72
2017-10-08T02:53:59.502Z,31.87
2017-10-08T02:56:28.545Z,34.97
2017-10-08T02:58:58.390Z,31.75
2017-10-08T03:01:27.603Z,35.13
2017-10-08T03:03:56.454Z,34.67
2017-10-08T03:06:25.293Z,40.53
2017-10-08T03:08:54.282Z,37.63
2017-10-08T03:11:23.709Z,31.15
2017-10-08T03:13:53.240Z,31.40
2017-10-08T03:16:22.153Z,33.85
2017-10-08T03:18:51.275Z,31.63
2017-10-08T03:21:20.084Z,30.08
2017-10-08T03:23:49.736Z,39.28
2017-10-08T03:26:18.955Z,34.70
2017-10-08T03:28:47.828Z,36.55
2017-10-08T03:31:16.726Z,37.78
2017-10-08T03:33:46.176Z,37.05
2017-10-08T03:36:15.835Z,35.13
2017-10-08T03:38:44.762Z,27.30
2017-10-08T03:41:13.625Z,31.17
2017-10-08T03:43:42.429Z,35.58
2017-10-08T03:46:11.988Z,35.25
2017-10-08T03:48:41.138Z,35.03
2017-10-08T03:51:10.143Z,35.83
2017-10-08T03:53:39.958Z,26.00
2017-10-08T03:56:09.823Z,33.47
2017-10-08T03:58:38.616Z,37.28
2017-10-08T04:01:07.912Z,35.35
2017-10-08T04:03:37.200Z,38.58
2017-10-08T04:06:06.179Z,31.95
2017-10-08T04:08:35.321Z,33.65
2017-10-08T04:11:04.177Z,37.38
2017-10-08T04:13:33.082Z,31.25
2017-10-08T04:16:02.361Z,40.47
2017-10-08T04:18:31.509Z,37.03
2017-10-08T04:21:01.406Z,42.95
2017-10-08T04:23:30.186Z,36.13
2017-10-08T04:25:59.845Z,35.33
2017-10-08T04:28:28.804Z,34.95
2017-10-08T04:30:58.453Z,40.12
2017-10-08T04:33:27.639Z,39.42
2017-10-08T04:35:56.647Z,38.33
2017-10-08T04:38:25.789Z,44.28
2017-10-08T04:40:54.879Z,36.50
2017-10-08T04:43:24.134Z,40.00
2017-10-08T04:45:53.356Z,40.87
2017-10-08T04:48:22.341Z,40.40
2017-10-08T04:50:51.304Z,49.95
2017-10-08T04:53:20.142Z,43.00
2017-10-08T04:55:50.538Z,43.58
2017-10-08T04:58:19.422Z,39.00
2017-10-08T05:00:48.268Z,39.63
2017-10-08T05:03:17.379Z,39.50
2017-10-08T05:05:46.317Z,38.10
2017-10-08T05:08:15.403Z,44.55
2017-10-08T05:10:44.292Z,43.10
2017-10-08T05:13:13.748Z,43.10
2017-10-08T05:15:42.851Z,52.90
2017-10-08T05:18:12.000Z,52.83
2017-10-08T05:20:40.773Z,51.85
2017-10-08T05:23:09.592Z,56.22
2017-10-08T05:25:39.898Z,51.30
2017-10-08T05:28:08.699Z,59.67
2017-10-08T05:30:38.217Z,47.80
2017-10-08T05:33:08.280Z,42.60
2017-10-08T05:35:37.253Z,51.42
2017-10-08T05:38:06.563Z,51.47
2017-10-08T05:40:35.700Z,45.53
2017-10-08T05:43:05.278Z,47.67
2017-10-08T05:45:34.178Z,57.87
2017-10-08T05:48:03.128Z,41.67
2017-10-08T05:50:31.949Z,43.38
2017-10-08T05:53:00.729Z,42.13
2017-10-08T05:55:30.394Z,54.00
2017-10-08T05:57:59.170Z,44.45
2017-10-08T06:00:28.810Z,51.65
2017-10-08T06:02:57.645Z,41.22
2017-10-08T06:05:26.581Z,41.93
2017-10-08T06:07:55.798Z,41.63
2017-10-08T06:10:24.723Z,49.25
2017-10-08T06:12:53.761Z,52.80
2017-10-08T06:15:23.163Z,52.40
2017-10-08T06:17:52.223Z,50.08
2017-10-08T06:20:21.740Z,45.20
2017-10-08T06:22:50.845Z,42.00
2017-10-08T06:25:20.196Z,44.30
2017-10-08T06:27:51.608Z,40.90
2017-10-08T06:30:20.538Z,46.15
2017-10-08T06:32:49.510Z,42.50
2017-10-08T06:35:18.430Z,43.38
2017-10-08T06:37:47.328Z,44.90
2017-10-08T06:40:17.442Z,33.22
2017-10-08T06:42:47.056Z,38.45
2017-10-08T06:45:16.869Z,39.05
2017-10-08T06:47:47.101Z,43.13
2017-10-08T06:50:16.187Z,44.20
2017-10-08T06:52:46.045Z,53.50
2017-10-08T06:55:14.916Z,39.38
2017-10-08T06:57:44.029Z,35.60
2017-10-08T07:00:12.926Z,38.13
2017-10-08T07:02:41.997Z,29.17
2017-10-08T07:05:10.941Z,33.53
2017-10-08T07:07:40.933Z,31.73
2017-10-08T07:10:09.798Z,32.90
2017-10-08T07:12:38.680Z,25.90
2017-10-08T07:15:07.943Z,34.70
2017-10-08T07:17:37.789Z,38.13
2017-10-08T07:20:06.821Z,33.63
2017-10-08T07:22:36.861Z,28.10
2017-10-08T07:25:06.563Z,32.90
2017-10-08T07:27:36.233Z,28.60
2017-10-08T07:30:05.466Z,17.70
2017-10-08T07:32:35.148Z,18.87
2017-10-08T07:35:03.982Z,17.07
2017-10-08T07:37:32.848Z,22.48
2017-10-08T07:40:02.682Z,18.83
2017-10-08T07:42:31.654Z,17.83
2017-10-08T07:45:01.438Z,19.23
2017-10-08T07:47:30.601Z,25.23
2017-10-08T07:49:59.948Z,24.52
2017-10-08T07:52:29.866Z,27.33
2017-10-08T07:54:58.819Z,21.10
2017-10-08T07:57:28.158Z,24.40
2017-10-08T07:59:57.129Z,17.67
2017-10-08T08:02:26.166Z,23.40
2017-10-08T08:04:55.185Z,26.67
2017-10-08T08:07:23.999Z,16.40
2017-10-08T08:09:52.814Z,9.00
2017-10-08T08:12:22.459Z,13.95
2017-10-08T08:14:51.250Z,12.20
2017-10-08T08:17:20.268Z,22.73
2017-10-08T08:19:49.258Z,14.73
2017-10-08T08:22:18.245Z,14.57
2017-10-08T08:24:47.150Z,51.08
2017-10-08T08:27:16.270Z,18.50
2017-10-08T08:29:45.855Z,21.15
2017-10-08T08:32:18.462Z,24.80
2017-10-08T08:34:50.027Z,28.33
2017-10-08T08:37:19.002Z,24.90
2017-10-08T08:39:52.962Z,22.00
2017-10-08T08:42:22.923Z,22.83
2017-10-08T08:44:53.230Z,24.65
2017-10-08T08:47:22.484Z,22.98
2017-10-08T08:49:51.453Z,25.45
2017-10-08T08:52:20.499Z,14.43
2017-10-08T08:54:51.281Z,17.70
2017-10-08T08:57:22.158Z,13.65
2017-10-08T08:59:52.047Z,19.60
2017-10-08T09:02:21.817Z,15.30
2017-10-08T09:04:53.346Z,17.43
2017-10-08T09:07:26.018Z,22.17
2017-10-08T09:09:55.336Z,15.60
2017-10-08T09:12:24.174Z,16.90
2017-10-08T09:14:53.098Z,27.15
2017-10-08T09:17:22.011Z,20.47
2017-10-08T09:19:51.737Z,19.65
2017-10-08T09:22:22.125Z,16.60
2017-10-08T09:24:50.959Z,25.30
2017-10-08T09:27:19.908Z,26.55
2017-10-08T09:29:48.831Z,24.30
2017-10-08T09:32:18.773Z,18.25
2017-10-08T09:34:47.653Z,20.15
2017-10-08T09:37:16.652Z,14.97
2017-10-08T09:39:46.297Z,14.75
2017-10-08T09:42:15.758Z,15.60
2017-10-08T09:44:44.814Z,15.93
2017-10-08T09:47:14.782Z,9.35
2017-10-08T09:49:44.064Z,12.57
2017-10-08T09:52:13.350Z,15.45
2017-10-08T09:54:42.321Z,11.15
2017-10-08T09:57:11.522Z,6.97
2017-10-08T09:59:41.402Z,13.30
2017-10-08T10:02:10.453Z,11.30
2017-10-08T10:04:39.643Z,11.57
2017-10-08T10:07:08.528Z,11.30
2017-10-08T10:09:37.371Z,10.73
2017-10-08T10:12:06.292Z,10.17
2017-10-08T10:14:39.416Z,17.08
2017-10-08T10:18:38.433Z,16.00
2017-10-08T10:21:07.669Z,16.80
2017-10-08T10:23:39.324Z,14.85
2017-10-08T10:26:09.010Z,13.65
2017-10-08T10:28:38.256Z,12.90
2017-10-08T10:31:07.390Z,16.60
2017-10-08T10:33:36.584Z,15.20
2017-10-08T10:36:05.750Z,13.23
2017-10-08T10:38:35.750Z,10.40
2017-10-08T10:41:08.206Z,10.73
2017-10-08T10:43:37.290Z,18.52
2017-10-08T10:46:07.700Z,11.50
2017-10-08T10:48:36.775Z,9.98
2017-10-08T10:51:05.885Z,14.18
2017-10-08T10:53:35.876Z,11.73
2017-10-08T10:56:05.191Z,5.95
2017-10-08T10:58:36.163Z,11.40
2017-10-08T11:01:06.064Z,9.25
2017-10-08T11:03:35.297Z,10.80
2017-10-08T11:06:05.062Z,5.40
2017-10-08T11:08:34.594Z,4.10
2017-10-08T11:11:04.960Z,7.12
2017-10-08T11:13:33.863Z,12.10
2017-10-08T11:16:02.846Z,8.55
2017-10-08T11:18:32.371Z,10.53
2017-10-08T11:21:01.971Z,12.00
2017-10-08T11:23:31.845Z,12.75
2017-10-08T11:26:02.291Z,8.63
2017-10-08T11:28:31.543Z,9.80
2017-10-08T11:31:01.876Z,12.02
2017-10-08T11:33:33.769Z,12.60
2017-10-08T11:36:02.728Z,10.00
2017-10-08T11:38:33.459Z,8.68
2017-10-08T11:41:03.325Z,9.38
2017-10-08T11:43:32.533Z,11.35
2017-10-08T11:46:01.991Z,5.55
2017-10-08T11:48:31.034Z,16.30
2017-10-08T11:51:00.314Z,8.38
2017-10-08T11:53:30.562Z,5.75
2017-10-08T11:56:00.007Z,7.53
2017-10-08T11:58:30.219Z,8.73
2017-10-08T12:01:00.265Z,9.90
2017-10-08T12:03:30.145Z,7.70
2017-10-08T12:05:59.208Z,5.12
2017-10-08T12:08:28.265Z,6.03
2017-10-08T12:10:58.283Z,6.15
2017-10-08T12:13:28.395Z,4.15
2017-10-08T12:16:00.232Z,8.90
2017-10-08T12:18:31.780Z,6.03
2017-10-08T12:21:01.286Z,5.45
2017-10-08T12:23:30.822Z,7.25
2017-10-08T12:25:59.808Z,8.30
2017-10-08T12:28:29.460Z,6.80
2017-10-08T12:30:58.481Z,8.70
2017-10-08T12:33:27.769Z,15.02
2017-10-08T12:35:56.889Z,7.32
2017-10-08T12:38:26.026Z,10.15
2017-10-08T12:40:54.986Z,21.43
2017-10-08T12:43:24.615Z,13.15
2017-10-08T12:45:53.440Z,11.67
2017-10-08T12:48:22.375Z,11.48
2017-10-08T12:50:53.044Z,24.55
2017-10-08T12:53:22.014Z,10.00
2017-10-08T12:55:50.890Z,15.47
2017-10-08T12:58:20.690Z,18.90
2017-10-08T13:00:50.425Z,48.38
2017-10-08T13:03:19.730Z,15.85
2017-10-08T13:05:49.234Z,22.77
2017-10-08T13:08:18.674Z,12.10
2017-10-08T13:10:47.558Z,43.38
2017-10-08T13:13:16.379Z,24.77
2017-10-08T13:15:45.989Z,12.80
2017-10-08T13:18:15.809Z,20.30
2017-10-08T13:20:45.878Z,17.15
2017-10-08T13:23:15.110Z,8.00
2017-10-08T13:25:45.038Z,13.88
2017-10-08T13:28:16.525Z,18.27
2017-10-08T13:30:45.746Z,8.80
2017-10-08T13:33:15.099Z,10.35
2017-10-08T13:35:44.159Z,6.70
2017-10-08T13:38:13.190Z,8.80
2017-10-08T13:40:42.286Z,6.40
2017-10-08T13:46:37.012Z,6.28
2017-10-08T13:49:06.450Z,4.43
2017-10-08T13:51:36.069Z,7.43
2017-10-08T13:54:06.122Z,3.80
2017-10-08T13:56:36.185Z,2.40
2017-10-08T13:59:05.484Z,5.05
2017-10-08T14:01:35.136Z,5.60
2017-10-08T14:04:05.155Z,8.33
2017-10-08T14:06:34.461Z,5.80
2017-10-08T14:09:04.656Z,7.53
2017-10-08T14:11:33.975Z,8.88
2017-10-08T14:14:03.278Z,6.10
2017-10-08T14:16:33.291Z,6.57
2017-10-08T14:19:02.606Z,14.23
2017-10-08T14:21:33.322Z,5.35
2017-10-08T14:24:03.716Z,8.57
2017-10-08T14:26:33.681Z,7.03
2017-10-08T14:29:04.569Z,7.05
2017-10-08T14:31:34.424Z,11.13
2017-10-08T14:34:07.371Z,10.30
2017-10-08T14:36:37.433Z,9.40
2017-10-08T14:39:07.760Z,6.67
2017-10-08T14:41:38.968Z,20.10
2017-10-08T14:44:10.860Z,8.57
2017-10-08T14:46:40.969Z,10.82
2017-10-08T14:49:11.313Z,16.83
2017-10-08T14:51:41.502Z,9.13
2017-10-08T14:54:12.277Z,8.73
2017-10-08T14:56:42.975Z,10.73
2017-10-08T14:59:13.015Z,14.50
2017-10-08T15:01:42.432Z,3.70
2017-10-08T15:04:12.751Z,13.43
2017-10-08T15:06:42.002Z,8.63
2017-10-08T15:09:12.389Z,8.55
2017-10-08T15:11:42.035Z,10.20
2017-10-08T15:14:12.331Z,5.28
2017-10-08T15:16:41.698Z,4.83
2017-10-08T15:19:11.012Z,7.45
2017-10-08T15:21:40.377Z,7.10
2017-10-08T15:24:10.878Z,9.07
2017-10-08T15:26:40.285Z,9.73
2017-10-08T15:29:09.749Z,8.68
2017-10-08T15:31:39.221Z,22.98
2017-10-08T15:34:08.598Z,8.48
2017-10-08T15:36:38.590Z,8.90
2017-10-08T15:39:07.794Z,15.52
2017-10-08T15:41:37.038Z,8.47
2017-10-08T15:44:06.484Z,16.70
2017-10-08T15:46:35.685Z,18.17
2017-10-08T15:49:05.261Z,24.07
2017-10-08T15:51:34.594Z,16.90
2017-10-08T15:54:04.299Z,8.77
2017-10-08T15:56:33.510Z,17.10
2017-10-08T15:59:03.649Z,19.92
2017-10-08T16:01:33.849Z,12.18
2017-10-08T16:04:04.277Z,9.43
2017-10-08T16:06:34.752Z,9.23
2017-10-08T16:09:04.387Z,9.07
2017-10-08T16:11:33.636Z,6.70
2017-10-08T16:14:03.375Z,9.70
2017-10-08T16:16:33.301Z,9.80
2017-10-08T16:19:02.636Z,12.97
2017-10-08T16:21:32.667Z,44.53
2017-10-08T16:24:02.163Z,34.17
2017-10-08T16:26:32.377Z,15.02
2017-10-08T16:29:02.457Z,9.70
2017-10-08T16:31:31.815Z,7.07
2017-10-08T16:34:01.296Z,36.05
2017-10-08T16:36:31.371Z,22.75
2017-10-08T16:39:01.400Z,5.85
2017-10-08T16:41:30.983Z,18.12
2017-10-08T16:44:00.232Z,20.15
2017-10-08T16:46:30.463Z,24.90
2017-10-08T16:49:00.075Z,10.75
2017-10-08T16:51:29.510Z,14.98
2017-10-08T16:53:59.353Z,16.55
2017-10-08T16:56:28.725Z,12.30
2017-10-08T16:58:58.082Z,7.07
2017-10-08T17:01:28.171Z,4.37
2017-10-08T17:03:57.605Z,12.20
2017-10-08T17:06:27.191Z,7.93
2017-10-08T17:08:56.795Z,8.27
2017-10-08T17:11:26.570Z,18.08
2017-10-08T17:13:56.044Z,12.63
2017-10-08T17:16:25.612Z,30.33
2017-10-08T17:18:56.001Z,26.55
2017-10-08T17:21:25.339Z,21.85
2017-10-08T17:26:55.017Z,20.35
2017-10-08T17:29:24.601Z,8.43
2017-10-08T17:31:53.912Z,12.03
2017-10-08T17:34:23.134Z,11.70
2017-10-08T17:36:52.423Z,11.70
2017-10-08T17:39:21.741Z,13.83
2017-10-08T17:41:52.011Z,12.40
2017-10-08T17:44:21.282Z,15.63
2017-10-08T17:46:50.701Z,6.63
2017-10-08T17:49:21.269Z,8.83
2017-10-08T17:51:50.514Z,17.30
2017-10-08T17:54:20.642Z,5.05
2017-10-08T17:56:50.662Z,14.93
2017-10-08T17:59:22.443Z,16.37
2017-10-08T18:01:51.756Z,11.70
2017-10-08T18:04:21.088Z,11.07
2017-10-08T18:06:52.050Z,5.57
2017-10-08T18:09:23.313Z,9.70
2017-10-08T18:11:52.657Z,13.37
2017-10-08T18:14:22.615Z,13.50
2017-10-08T18:16:52.789Z,13.32
2017-10-08T18:19:22.188Z,12.88
2017-10-08T18:21:51.606Z,7.85
2017-10-08T18:24:21.119Z,8.25
2017-10-08T18:26:51.323Z,10.23
2017-10-08T18:29:20.914Z,13.20
2017-10-08T18:31:50.634Z,8.15
2017-10-08T18:34:20.148Z,11.60
2017-10-08T18:36:50.190Z,7.60
2017-10-08T18:39:20.314Z,11.80
2017-10-08T18:41:50.471Z,5.03
2017-10-08T18:44:19.814Z,12.18
2017-10-08T18:46:49.599Z,16.05
2017-10-08T18:49:19.397Z,12.43
2017-10-08T18:51:48.660Z,13.98
2017-10-08T18:54:18.159Z,11.60
2017-10-08T18:56:48.173Z,9.95
2017-10-08T18:59:18.243Z,12.70
2017-10-08T19:01:49.046Z,11.50
2017-10-08T19:04:18.431Z,12.20
2017-10-08T19:06:47.794Z,10.18
2017-10-08T19:09:17.431Z,13.20
2017-10-08T19:11:46.703Z,11.23
2017-10-08T19:14:15.973Z,12.02
2017-10-08T19:16:45.303Z,15.15
2017-10-08T19:19:14.951Z,12.10
2017-10-08T19:21:44.364Z,12.25
2017-10-08T19:24:13.717Z,9.93
2017-10-08T19:26:43.779Z,13.13
2017-10-08T19:29:13.357Z,11.50
2017-10-08T19:31:43.639Z,17.13
2017-10-08T19:34:13.000Z,18.33
2017-10-08T19:36:43.175Z,15.60
2017-10-08T19:39:12.469Z,18.85
2017-10-08T19:41:42.681Z,11.40
2017-10-08T19:44:12.010Z,13.05
2017-10-08T19:46:42.039Z,13.73
2017-10-08T19:49:11.408Z,17.52
2017-10-08T19:51:40.690Z,12.10
2017-10-08T19:54:10.003Z,15.68
2017-10-08T19:56:39.482Z,15.05
2017-10-08T19:59:09.730Z,12.53
2017-10-08T20:01:41.234Z,13.33
2017-10-08T20:04:11.523Z,15.73
2017-10-08T20:06:40.966Z,15.60
2017-10-08T20:09:10.462Z,14.75
2017-10-08T20:11:39.939Z,16.15
2017-10-08T20:14:09.906Z,12.55
2017-10-08T20:16:39.100Z,15.20
2017-10-08T20:19:08.957Z,23.65
2017-10-08T20:21:38.990Z,17.83
2017-10-08T20:24:08.335Z,23.60
2017-10-08T20:26:37.575Z,18.98
2017-10-08T20:29:06.885Z,19.35
2017-10-08T20:31:37.293Z,22.75
2017-10-08T20:34:07.477Z,16.08
2017-10-08T20:36:37.811Z,21.60
2017-10-08T20:39:07.196Z,21.12
2017-10-08T20:41:36.540Z,71.93
2017-10-08T20:44:06.565Z,30.40
2017-10-08T20:46:36.353Z,21.30
2017-10-08T20:49:06.402Z,20.65
2017-10-08T20:51:36.062Z,16.20
2017-10-08T20:54:05.335Z,20.60
2017-10-08T20:56:34.517Z,19.60
2017-10-08T20:59:04.254Z,21.40
2017-10-08T21:01:33.520Z,21.85
2017-10-08T21:04:02.765Z,18.37
2017-10-08T21:06:32.148Z,19.60
2017-10-08T21:09:01.805Z,14.98
2017-10-08T21:11:32.202Z,22.77
2017-10-08T21:14:01.490Z,12.90
2017-10-08T21:16:31.436Z,18.02
2017-10-08T21:19:02.020Z,16.23
2017-10-08T21:21:31.684Z,16.33
2017-10-08T21:24:01.042Z,21.05
2017-10-08T21:26:30.472Z,23.10
2017-10-08T21:29:00.587Z,21.13
2017-10-08T21:31:30.724Z,20.27
2017-10-08T21:34:00.351Z,17.52
2017-10-08T21:36:29.595Z,16.93
2017-10-08T21:38:59.608Z,15.83
2017-10-08T21:41:28.933Z,22.10
2017-10-08T21:43:58.976Z,22.62
2017-10-08T21:46:29.597Z,23.55
2017-10-08T21:49:00.053Z,25.10
2017-10-08T21:51:30.735Z,23.17
2017-10-08T21:54:00.033Z,25.20
2017-10-08T21:56:30.965Z,28.10
2017-10-08T21:59:01.009Z,22.67
2017-10-08T22:01:30.317Z,19.83
2017-10-08T22:04:00.836Z,20.37
2017-10-08T22:06:30.045Z,29.63
2017-10-08T22:08:59.489Z,15.70
2017-10-08T22:11:28.771Z,20.73
2017-10-08T22:13:58.021Z,23.90
2017-10-08T22:16:27.256Z,26.20
2017-10-08T22:18:56.487Z,25.65
2017-10-08T22:21:26.996Z,20.20
2017-10-08T22:23:56.241Z,15.60
2017-10-08T22:26:25.614Z,14.23
2017-10-08T22:28:55.564Z,20.48
2017-10-08T22:31:24.765Z,16.98
2017-10-08T22:33:54.011Z,19.15
2017-10-08T22:36:23.297Z,22.52
2017-10-08T22:38:52.522Z,21.10
2017-10-08T22:41:23.013Z,16.75
2017-10-08T22:43:52.537Z,25.52
2017-10-08T22:46:21.901Z,21.37
2017-10-08T22:48:51.479Z,18.27
2017-10-08T22:51:21.953Z,26.30
2017-10-08T22:53:51.260Z,20.33
2017-10-08T22:56:52.311Z,26.85
2017-10-08T22:59:24.625Z,23.17
2017-10-08T23:01:59.978Z,18.00
2017-10-08T23:04:31.537Z,29.85
2017-10-08T23:07:01.464Z,23.75
2017-10-08T23:09:33.983Z,19.85
2017-10-08T23:12:07.242Z,29.58
2017-10-08T23:14:36.642Z,22.92
2017-10-08T23:17:05.949Z,29.02
2017-10-08T23:19:35.409Z,23.15
2017-10-08T23:22:05.160Z,28.83
2017-10-08T23:24:34.402Z,22.98
2017-10-08T23:27:04.015Z,18.15
2017-10-08T23:29:33.380Z,14.35
2017-10-08T23:32:03.457Z,19.48
2017-10-08T23:35:22.433Z,17.08
2017-10-08T23:37:51.639Z,15.07
2017-10-08T23:40:21.156Z,21.57
2017-10-08T23:42:50.474Z,18.92
2017-10-08T23:45:20.102Z,17.35
2017-10-08T23:47:49.402Z,27.15
2017-10-08T23:50:18.613Z,19.17
2017-10-08T23:52:48.207Z,24.23
2017-10-08T23:55:17.525Z,26.47
2017-10-08T23:57:47.530Z,25.10
